sensor_id;sensor_type;location;lat;lon;timestamp;temperature;humidity
25973;DHT22;13765;51.166;4.466;2022-10-28T00:00:39;17.90;99.90
25973;DHT22;13765;51.166;4.466;2022-10-28T00:03:06;17.90;99.90
25973;DHT22;13765;51.166;4.466;2022-10-28T00:05:35;17.90;99.90
25973;DHT22;13765;51.166;4.466;2022-10-28T00:08:02;17.90;99.90
25973;DHT22;13765;51.166;4.466;2022-10-28T00:10:30;17.90;99.90
25973;DHT22;13765;51.166;4.466;2022-10-28T00:12:56;17.80;99.90
25973;DHT22;13765;51.166;4.466;2022-10-28T00:15:22;17.80;99.90
25973;DHT22;13765;51.166;4.466;2022-10-28T00:17:48;17.70;99.90
25973;DHT22;13765;51.166;4.466;2022-10-28T00:20:16;17.70;99.90
25973;DHT22;13765;51.166;4.466;2022-10-28T00:22:44;17.80;99.90
25973;DHT22;13765;51.166;4.466;2022-10-28T00:25:12;17.70;99.90
25973;DHT22;13765;51.166;4.466;2022-10-28T00:27:39;17.70;99.90
25973;DHT22;13765;51.166;4.466;2022-10-28T00:30:06;17.70;99.90
25973;DHT22;13765;51.166;4.466;2022-10-28T00:32:31;17.70;99.90
25973;DHT22;13765;51.166;4.466;2022-10-28T00:34:58;17.70;99.90
25973;DHT22;13765;51.166;4.466;2022-10-28T00:37:23;17.70;99.90
25973;DHT22;13765;51.166;4.466;2022-10-28T00:39:49;17.70;99.90
25973;DHT22;13765;51.166;4.466;2022-10-28T00:42:20;17.60;99.90
25973;DHT22;13765;51.166;4.466;2022-10-28T00:50:06;17.60;99.90
25973;DHT22;13765;51.166;4.466;2022-10-28T00:52:38;17.50;99.90
25973;DHT22;13765;51.166;4.466;2022-10-28T00:55:05;17.50;99.90
25973;DHT22;13765;51.166;4.466;2022-10-28T00:57:36;17.50;99.90
25973;DHT22;13765;51.166;4.466;2022-10-28T01:00:06;17.50;99.90
25973;DHT22;13765;51.166;4.466;2022-10-28T01:02:40;17.50;99.90
25973;DHT22;13765;51.166;4.466;2022-10-28T01:05:08;17.50;99.90
25973;DHT22;13765;51.166;4.466;2022-10-28T01:07:37;17.50;99.90
25973;DHT22;13765;51.166;4.466;2022-10-28T01:10:05;17.50;99.90
25973;DHT22;13765;51.166;4.466;2022-10-28T01:12:45;17.30;99.90
25973;DHT22;13765;51.166;4.466;2022-10-28T01:23:05;17.20;99.90
25973;DHT22;13765;51.166;4.466;2022-10-28T01:33:53;17.10;99.90
25973;DHT22;13765;51.166;4.466;2022-10-28T01:42:07;17.00;99.90
25973;DHT22;13765;51.166;4.466;2022-10-28T01:44:44;17.00;99.90
25973;DHT22;13765;51.166;4.466;2022-10-28T01:50:30;16.90;99.90
25973;DHT22;13765;51.166;4.466;2022-10-28T01:53:03;17.00;99.90
25973;DHT22;13765;51.166;4.466;2022-10-28T01:55:40;17.00;99.90
25973;DHT22;13765;51.166;4.466;2022-10-28T01:58:08;17.00;99.90
25973;DHT22;13765;51.166;4.466;2022-10-28T02:00:39;17.00;99.90
25973;DHT22;13765;51.166;4.466;2022-10-28T02:03:06;16.90;99.90
25973;DHT22;13765;51.166;4.466;2022-10-28T02:05:46;17.00;99.90
25973;DHT22;13765;51.166;4.466;2022-10-28T02:18:57;16.80;99.90
25973;DHT22;13765;51.166;4.466;2022-10-28T02:26:55;16.90;99.90
25973;DHT22;13765;51.166;4.466;2022-10-28T02:29:37;16.80;99.90
25973;DHT22;13765;51.166;4.466;2022-10-28T02:32:16;16.80;99.90
25973;DHT22;13765;51.166;4.466;2022-10-28T02:34:46;16.80;99.90
25973;DHT22;13765;51.166;4.466;2022-10-28T02:37:22;16.80;99.90
25973;DHT22;13765;51.166;4.466;2022-10-28T02:39:53;16.80;99.90
25973;DHT22;13765;51.166;4.466;2022-10-28T02:42:32;16.80;99.90
25973;DHT22;13765;51.166;4.466;2022-10-28T02:45:10;16.80;99.90
25973;DHT22;13765;51.166;4.466;2022-10-28T02:47:40;16.80;99.90
25973;DHT22;13765;51.166;4.466;2022-10-28T02:50:11;16.80;99.90
25973;DHT22;13765;51.166;4.466;2022-10-28T02:52:47;16.80;99.90
25973;DHT22;13765;51.166;4.466;2022-10-28T02:55:17;16.90;99.90
25973;DHT22;13765;51.166;4.466;2022-10-28T02:57:44;16.90;99.90
25973;DHT22;13765;51.166;4.466;2022-10-28T03:00:33;16.90;99.90
25973;DHT22;13765;51.166;4.466;2022-10-28T03:03:01;16.70;99.90
25973;DHT22;13765;51.166;4.466;2022-10-28T03:05:28;16.70;99.90
25973;DHT22;13765;51.166;4.466;2022-10-28T03:07:56;16.70;99.90
25973;DHT22;13765;51.166;4.466;2022-10-28T03:10:22;16.70;99.90
25973;DHT22;13765;51.166;4.466;2022-10-28T03:12:48;16.50;99.90
25973;DHT22;13765;51.166;4.466;2022-10-28T03:15:14;16.60;99.90
25973;DHT22;13765;51.166;4.466;2022-10-28T03:17:39;16.60;99.90
25973;DHT22;13765;51.166;4.466;2022-10-28T03:20:06;16.60;99.90
25973;DHT22;13765;51.166;4.466;2022-10-28T03:22:34;16.60;99.90
25973;DHT22;13765;51.166;4.466;2022-10-28T03:25:03;16.50;99.90
25973;DHT22;13765;51.166;4.466;2022-10-28T03:27:31;16.60;99.90
25973;DHT22;13765;51.166;4.466;2022-10-28T03:29:57;16.60;99.90
25973;DHT22;13765;51.166;4.466;2022-10-28T03:32:22;16.70;99.90
25973;DHT22;13765;51.166;4.466;2022-10-28T03:34:53;16.60;99.90
25973;DHT22;13765;51.166;4.466;2022-10-28T03:37:18;16.60;99.90
25973;DHT22;13765;51.166;4.466;2022-10-28T03:39:46;16.60;99.90
25973;DHT22;13765;51.166;4.466;2022-10-28T03:42:12;16.60;99.90
25973;DHT22;13765;51.166;4.466;2022-10-28T03:44:40;16.60;99.90
25973;DHT22;13765;51.166;4.466;2022-10-28T03:47:08;16.60;99.90
25973;DHT22;13765;51.166;4.466;2022-10-28T03:49:36;16.60;99.90
25973;DHT22;13765;51.166;4.466;2022-10-28T03:52:04;16.50;99.90
25973;DHT22;13765;51.166;4.466;2022-10-28T03:54:30;16.50;99.90
25973;DHT22;13765;51.166;4.466;2022-10-28T03:56:56;16.50;99.90
25973;DHT22;13765;51.166;4.466;2022-10-28T03:59:24;16.50;99.90
25973;DHT22;13765;51.166;4.466;2022-10-28T04:01:49;16.50;99.90
25973;DHT22;13765;51.166;4.466;2022-10-28T04:04:18;16.50;99.90
25973;DHT22;13765;51.166;4.466;2022-10-28T04:06:44;16.50;99.90
25973;DHT22;13765;51.166;4.466;2022-10-28T04:09:09;16.50;99.90
25973;DHT22;13765;51.166;4.466;2022-10-28T04:11:35;16.40;99.90
25973;DHT22;13765;51.166;4.466;2022-10-28T04:14:03;16.40;99.90
25973;DHT22;13765;51.166;4.466;2022-10-28T04:16:34;16.40;99.90
25973;DHT22;13765;51.166;4.466;2022-10-28T04:18:59;16.30;99.90
25973;DHT22;13765;51.166;4.466;2022-10-28T04:21:27;16.30;99.90
25973;DHT22;13765;51.166;4.466;2022-10-28T04:23:53;16.40;99.90
25973;DHT22;13765;51.166;4.466;2022-10-28T04:26:21;16.40;99.90
25973;DHT22;13765;51.166;4.466;2022-10-28T04:28:46;16.40;99.90
25973;DHT22;13765;51.166;4.466;2022-10-28T04:31:12;16.40;99.90
25973;DHT22;13765;51.166;4.466;2022-10-28T04:33:40;16.50;99.90
25973;DHT22;13765;51.166;4.466;2022-10-28T04:36:06;16.30;99.90
25973;DHT22;13765;51.166;4.466;2022-10-28T04:38:35;16.20;99.90
25973;DHT22;13765;51.166;4.466;2022-10-28T04:41:00;16.20;99.90
25973;DHT22;13765;51.166;4.466;2022-10-28T04:43:28;16.10;99.90
25973;DHT22;13765;51.166;4.466;2022-10-28T04:45:54;16.10;99.90
25973;DHT22;13765;51.166;4.466;2022-10-28T04:48:20;16.10;99.90
25973;DHT22;13765;51.166;4.466;2022-10-28T04:50:46;16.10;99.90
25973;DHT22;13765;51.166;4.466;2022-10-28T04:53:15;16.10;99.90
25973;DHT22;13765;51.166;4.466;2022-10-28T04:55:45;16.20;99.90
25973;DHT22;13765;51.166;4.466;2022-10-28T04:58:13;16.20;99.90
25973;DHT22;13765;51.166;4.466;2022-10-28T05:00:42;16.10;99.90
25973;DHT22;13765;51.166;4.466;2022-10-28T05:03:07;16.10;99.90
25973;DHT22;13765;51.166;4.466;2022-10-28T05:05:35;16.10;99.90
25973;DHT22;13765;51.166;4.466;2022-10-28T05:08:04;16.10;99.90
25973;DHT22;13765;51.166;4.466;2022-10-28T05:10:29;16.10;99.90
25973;DHT22;13765;51.166;4.466;2022-10-28T05:13:00;16.10;99.90
25973;DHT22;13765;51.166;4.466;2022-10-28T05:15:27;16.10;99.90
25973;DHT22;13765;51.166;4.466;2022-10-28T05:17:57;16.00;99.90
25973;DHT22;13765;51.166;4.466;2022-10-28T05:20:26;16.10;99.90
25973;DHT22;13765;51.166;4.466;2022-10-28T05:22:54;16.10;99.90
25973;DHT22;13765;51.166;4.466;2022-10-28T05:25:21;16.10;99.90
25973;DHT22;13765;51.166;4.466;2022-10-28T05:27:47;16.10;99.90
25973;DHT22;13765;51.166;4.466;2022-10-28T05:30:14;16.00;99.90
25973;DHT22;13765;51.166;4.466;2022-10-28T05:32:40;16.00;99.90
25973;DHT22;13765;51.166;4.466;2022-10-28T05:35:06;15.90;99.90
25973;DHT22;13765;51.166;4.466;2022-10-28T05:37:32;15.90;99.90
25973;DHT22;13765;51.166;4.466;2022-10-28T05:39:58;16.00;99.90
25973;DHT22;13765;51.166;4.466;2022-10-28T05:42:24;16.10;99.90
25973;DHT22;13765;51.166;4.466;2022-10-28T05:44:52;16.00;99.90
25973;DHT22;13765;51.166;4.466;2022-10-28T05:47:20;16.00;99.90
25973;DHT22;13765;51.166;4.466;2022-10-28T05:49:46;16.00;99.90
25973;DHT22;13765;51.166;4.466;2022-10-28T05:52:12;15.90;99.90
25973;DHT22;13765;51.166;4.466;2022-10-28T05:54:38;16.00;99.90
25973;DHT22;13765;51.166;4.466;2022-10-28T05:57:05;16.00;99.90
25973;DHT22;13765;51.166;4.466;2022-10-28T05:59:34;16.00;99.90
25973;DHT22;13765;51.166;4.466;2022-10-28T06:01:59;15.90;99.90
25973;DHT22;13765;51.166;4.466;2022-10-28T06:04:27;15.90;99.90
25973;DHT22;13765;51.166;4.466;2022-10-28T06:06:56;15.90;99.90
25973;DHT22;13765;51.166;4.466;2022-10-28T06:09:22;15.90;99.90
25973;DHT22;13765;51.166;4.466;2022-10-28T06:11:48;15.90;99.90
25973;DHT22;13765;51.166;4.466;2022-10-28T06:14:14;15.80;99.90
25973;DHT22;13765;51.166;4.466;2022-10-28T06:16:40;15.70;99.90
25973;DHT22;13765;51.166;4.466;2022-10-28T06:19:06;15.80;99.90
25973;DHT22;13765;51.166;4.466;2022-10-28T06:21:34;15.70;99.90
25973;DHT22;13765;51.166;4.466;2022-10-28T06:24:04;15.70;99.90
25973;DHT22;13765;51.166;4.466;2022-10-28T06:26:30;15.70;99.90
25973;DHT22;13765;51.166;4.466;2022-10-28T06:28:59;15.70;99.90
25973;DHT22;13765;51.166;4.466;2022-10-28T06:31:25;15.70;99.90
25973;DHT22;13765;51.166;4.466;2022-10-28T06:33:51;15.80;99.90
25973;DHT22;13765;51.166;4.466;2022-10-28T06:36:21;15.80;99.90
25973;DHT22;13765;51.166;4.466;2022-10-28T06:38:52;15.80;99.90
25973;DHT22;13765;51.166;4.466;2022-10-28T06:41:17;15.80;99.90
25973;DHT22;13765;51.166;4.466;2022-10-28T06:43:46;15.80;99.90
25973;DHT22;13765;51.166;4.466;2022-10-28T06:46:14;15.80;99.90
25973;DHT22;13765;51.166;4.466;2022-10-28T06:48:40;15.80;99.90
25973;DHT22;13765;51.166;4.466;2022-10-28T06:51:08;16.00;99.90
25973;DHT22;13765;51.166;4.466;2022-10-28T06:53:34;16.00;99.90
25973;DHT22;13765;51.166;4.466;2022-10-28T06:56:00;16.10;99.90
25973;DHT22;13765;51.166;4.466;2022-10-28T06:58:28;16.00;99.90
25973;DHT22;13765;51.166;4.466;2022-10-28T07:00:56;16.10;99.90
25973;DHT22;13765;51.166;4.466;2022-10-28T07:03:29;16.20;99.90
25973;DHT22;13765;51.166;4.466;2022-10-28T07:05:57;16.30;99.90
25973;DHT22;13765;51.166;4.466;2022-10-28T07:08:26;16.30;99.90
25973;DHT22;13765;51.166;4.466;2022-10-28T07:10:56;16.30;99.90
25973;DHT22;13765;51.166;4.466;2022-10-28T07:13:28;16.40;99.90
25973;DHT22;13765;51.166;4.466;2022-10-28T07:15:56;16.50;99.90
25973;DHT22;13765;51.166;4.466;2022-10-28T07:18:23;16.70;99.90
25973;DHT22;13765;51.166;4.466;2022-10-28T07:20:49;16.80;99.90
25973;DHT22;13765;51.166;4.466;2022-10-28T07:23:18;16.80;99.90
25973;DHT22;13765;51.166;4.466;2022-10-28T07:25:54;16.90;99.90
25973;DHT22;13765;51.166;4.466;2022-10-28T07:28:23;16.80;99.90
25973;DHT22;13765;51.166;4.466;2022-10-28T07:30:52;16.90;99.90
25973;DHT22;13765;51.166;4.466;2022-10-28T07:33:18;17.00;99.90
25973;DHT22;13765;51.166;4.466;2022-10-28T07:35:46;17.10;99.90
25973;DHT22;13765;51.166;4.466;2022-10-28T07:38:14;17.10;99.90
25973;DHT22;13765;51.166;4.466;2022-10-28T07:40:40;17.10;99.90
25973;DHT22;13765;51.166;4.466;2022-10-28T07:43:08;17.20;99.90
25973;DHT22;13765;51.166;4.466;2022-10-28T07:45:34;17.30;99.90
25973;DHT22;13765;51.166;4.466;2022-10-28T07:48:01;17.30;99.90
25973;DHT22;13765;51.166;4.466;2022-10-28T07:50:27;17.20;99.90
25973;DHT22;13765;51.166;4.466;2022-10-28T07:52:55;17.30;99.90
25973;DHT22;13765;51.166;4.466;2022-10-28T07:55:20;17.40;99.90
25973;DHT22;13765;51.166;4.466;2022-10-28T07:57:47;17.50;99.90
25973;DHT22;13765;51.166;4.466;2022-10-28T08:00:13;17.70;99.90
25973;DHT22;13765;51.166;4.466;2022-10-28T08:02:39;17.80;99.90
25973;DHT22;13765;51.166;4.466;2022-10-28T08:05:05;17.80;99.90
25973;DHT22;13765;51.166;4.466;2022-10-28T08:07:33;17.90;99.90
25973;DHT22;13765;51.166;4.466;2022-10-28T08:10:02;18.00;99.90
25973;DHT22;13765;51.166;4.466;2022-10-28T08:12:27;18.10;99.90
25973;DHT22;13765;51.166;4.466;2022-10-28T08:14:53;18.30;99.90
25973;DHT22;13765;51.166;4.466;2022-10-28T08:17:22;18.30;99.90
25973;DHT22;13765;51.166;4.466;2022-10-28T08:19:48;18.50;99.90
25973;DHT22;13765;51.166;4.466;2022-10-28T08:22:17;18.50;99.90
25973;DHT22;13765;51.166;4.466;2022-10-28T08:24:43;18.50;99.90
25973;DHT22;13765;51.166;4.466;2022-10-28T08:27:09;18.50;99.90
25973;DHT22;13765;51.166;4.466;2022-10-28T08:29:38;18.60;99.90
25973;DHT22;13765;51.166;4.466;2022-10-28T08:32:07;18.60;99.90
25973;DHT22;13765;51.166;4.466;2022-10-28T08:34:33;18.60;99.90
25973;DHT22;13765;51.166;4.466;2022-10-28T08:37:02;18.70;99.90
25973;DHT22;13765;51.166;4.466;2022-10-28T08:39:30;18.80;99.90
25973;DHT22;13765;51.166;4.466;2022-10-28T08:50:16;18.90;99.90
25973;DHT22;13765;51.166;4.466;2022-10-28T08:52:51;18.90;99.90
25973;DHT22;13765;51.166;4.466;2022-10-28T08:55:41;18.90;99.90
25973;DHT22;13765;51.166;4.466;2022-10-28T08:58:29;18.90;99.90
25973;DHT22;13765;51.166;4.466;2022-10-28T09:00:58;19.00;99.90
25973;DHT22;13765;51.166;4.466;2022-10-28T09:03:37;19.00;99.90
25973;DHT22;13765;51.166;4.466;2022-10-28T09:06:06;19.10;99.90
25973;DHT22;13765;51.166;4.466;2022-10-28T09:08:43;19.10;99.90
25973;DHT22;13765;51.166;4.466;2022-10-28T09:11:49;19.20;99.90
25973;DHT22;13765;51.166;4.466;2022-10-28T09:14:36;19.30;99.90
25973;DHT22;13765;51.166;4.466;2022-10-28T09:17:17;19.50;99.90
25973;DHT22;13765;51.166;4.466;2022-10-28T09:25:45;19.80;99.90
25973;DHT22;13765;51.166;4.466;2022-10-28T09:31:19;20.00;99.90
25973;DHT22;13765;51.166;4.466;2022-10-28T09:36:37;20.10;99.90
25973;DHT22;13765;51.166;4.466;2022-10-28T09:39:05;20.10;99.90
25973;DHT22;13765;51.166;4.466;2022-10-28T09:41:37;20.30;99.90
25973;DHT22;13765;51.166;4.466;2022-10-28T09:44:10;20.40;99.90
25973;DHT22;13765;51.166;4.466;2022-10-28T09:46:39;20.50;99.90
25973;DHT22;13765;51.166;4.466;2022-10-28T09:49:13;20.70;99.90
25973;DHT22;13765;51.166;4.466;2022-10-28T09:54:33;21.10;99.90
25973;DHT22;13765;51.166;4.466;2022-10-28T09:57:00;21.20;99.90
25973;DHT22;13765;51.166;4.466;2022-10-28T09:59:30;21.30;99.90
25973;DHT22;13765;51.166;4.466;2022-10-28T10:01:58;21.50;99.90
25973;DHT22;13765;51.166;4.466;2022-10-28T10:04:29;21.60;99.90
25973;DHT22;13765;51.166;4.466;2022-10-28T10:07:10;21.70;99.90
25973;DHT22;13765;51.166;4.466;2022-10-28T10:09:39;21.80;99.90
25973;DHT22;13765;51.166;4.466;2022-10-28T10:12:11;21.90;99.90
25973;DHT22;13765;51.166;4.466;2022-10-28T10:14:44;22.00;99.90
25973;DHT22;13765;51.166;4.466;2022-10-28T10:17:20;22.10;99.90
25973;DHT22;13765;51.166;4.466;2022-10-28T10:22:39;22.30;99.90
25973;DHT22;13765;51.166;4.466;2022-10-28T10:25:31;22.40;99.90
25973;DHT22;13765;51.166;4.466;2022-10-28T10:33:00;22.50;99.90
25973;DHT22;13765;51.166;4.466;2022-10-28T10:35:34;22.50;99.90
25973;DHT22;13765;51.166;4.466;2022-10-28T10:38:05;22.30;99.90
25973;DHT22;13765;51.166;4.466;2022-10-28T10:40:37;22.30;99.90
25973;DHT22;13765;51.166;4.466;2022-10-28T10:43:20;22.30;99.90
25973;DHT22;13765;51.166;4.466;2022-10-28T10:45:58;22.40;99.90
25973;DHT22;13765;51.166;4.466;2022-10-28T10:48:25;22.40;99.90
25973;DHT22;13765;51.166;4.466;2022-10-28T10:50:52;22.30;99.90
25973;DHT22;13765;51.166;4.466;2022-10-28T10:55:50;22.50;99.90
25973;DHT22;13765;51.166;4.466;2022-10-28T10:58:23;22.50;99.90
25973;DHT22;13765;51.166;4.466;2022-10-28T11:00:54;22.50;99.90
25973;DHT22;13765;51.166;4.466;2022-10-28T11:03:34;22.70;99.90
25973;DHT22;13765;51.166;4.466;2022-10-28T11:06:02;22.60;99.90
25973;DHT22;13765;51.166;4.466;2022-10-28T11:13:37;22.60;99.90
25973;DHT22;13765;51.166;4.466;2022-10-28T11:16:20;22.60;99.90
25973;DHT22;13765;51.166;4.466;2022-10-28T11:18:50;22.50;99.90
25973;DHT22;13765;51.166;4.466;2022-10-28T11:29:43;22.60;99.90
25973;DHT22;13765;51.166;4.466;2022-10-28T11:32:46;22.60;99.90
25973;DHT22;13765;51.166;4.466;2022-10-28T11:35:27;22.70;99.90
25973;DHT22;13765;51.166;4.466;2022-10-28T11:43:34;23.00;99.90
25973;DHT22;13765;51.166;4.466;2022-10-28T11:55:15;22.70;99.90
25973;DHT22;13765;51.166;4.466;2022-10-28T12:06:21;22.30;99.90
25973;DHT22;13765;51.166;4.466;2022-10-28T12:20:10;22.40;99.90
25973;DHT22;13765;51.166;4.466;2022-10-28T12:22:56;22.50;99.90
25973;DHT22;13765;51.166;4.466;2022-10-28T12:25:27;22.50;99.90
25973;DHT22;13765;51.166;4.466;2022-10-28T12:30:47;22.50;99.90
25973;DHT22;13765;51.166;4.466;2022-10-28T12:33:23;22.50;99.90
25973;DHT22;13765;51.166;4.466;2022-10-28T12:35:55;22.60;99.90
25973;DHT22;13765;51.166;4.466;2022-10-28T12:38:29;22.70;99.90
25973;DHT22;13765;51.166;4.466;2022-10-28T12:41:12;22.80;99.90
25973;DHT22;13765;51.166;4.466;2022-10-28T12:43:46;22.90;99.90
25973;DHT22;13765;51.166;4.466;2022-10-28T12:51:57;23.00;99.90
25973;DHT22;13765;51.166;4.466;2022-10-28T12:54:36;23.10;99.90
25973;DHT22;13765;51.166;4.466;2022-10-28T12:57:15;23.00;99.90
25973;DHT22;13765;51.166;4.466;2022-10-28T12:59:54;23.00;99.90
25973;DHT22;13765;51.166;4.466;2022-10-28T13:02:34;23.00;99.90
25973;DHT22;13765;51.166;4.466;2022-10-28T13:05:03;22.90;99.90
25973;DHT22;13765;51.166;4.466;2022-10-28T13:20:58;22.60;99.90
25973;DHT22;13765;51.166;4.466;2022-10-28T13:26:21;22.60;99.90
25973;DHT22;13765;51.166;4.466;2022-10-28T13:28:52;22.50;99.90
25973;DHT22;13765;51.166;4.466;2022-10-28T13:31:23;22.50;99.90
25973;DHT22;13765;51.166;4.466;2022-10-28T13:34:00;22.60;99.90
25973;DHT22;13765;51.166;4.466;2022-10-28T13:36:33;22.50;99.90
25973;DHT22;13765;51.166;4.466;2022-10-28T13:39:03;22.50;99.90
25973;DHT22;13765;51.166;4.466;2022-10-28T13:41:37;22.60;99.90
25973;DHT22;13765;51.166;4.466;2022-10-28T13:44:20;22.60;99.90
25973;DHT22;13765;51.166;4.466;2022-10-28T13:47:10;22.50;99.90
25973;DHT22;13765;51.166;4.466;2022-10-28T13:55:56;22.50;99.90
25973;DHT22;13765;51.166;4.466;2022-10-28T13:58:24;22.60;99.90
25973;DHT22;13765;51.166;4.466;2022-10-28T14:00:51;22.60;99.90
25973;DHT22;13765;51.166;4.466;2022-10-28T14:03:19;22.70;99.90
25973;DHT22;13765;51.166;4.466;2022-10-28T14:08:27;22.80;99.90
25973;DHT22;13765;51.166;4.466;2022-10-28T14:10:57;22.80;99.90
25973;DHT22;13765;51.166;4.466;2022-10-28T14:13:23;22.70;99.90
25973;DHT22;13765;51.166;4.466;2022-10-28T14:16:39;22.80;99.90
25973;DHT22;13765;51.166;4.466;2022-10-28T14:24:13;22.70;99.90
25973;DHT22;13765;51.166;4.466;2022-10-28T14:29:47;22.80;99.90
25973;DHT22;13765;51.166;4.466;2022-10-28T14:40:32;22.40;99.90
25973;DHT22;13765;51.166;4.466;2022-10-28T14:48:41;22.20;99.90
25973;DHT22;13765;51.166;4.466;2022-10-28T14:51:13;22.10;99.90
25973;DHT22;13765;51.166;4.466;2022-10-28T14:53:42;22.00;99.90
25973;DHT22;13765;51.166;4.466;2022-10-28T14:58:42;22.30;99.90
25973;DHT22;13765;51.166;4.466;2022-10-28T15:01:23;22.10;99.90
25973;DHT22;13765;51.166;4.466;2022-10-28T15:03:50;22.10;99.90
25973;DHT22;13765;51.166;4.466;2022-10-28T15:06:27;22.20;99.90
25973;DHT22;13765;51.166;4.466;2022-10-28T15:09:00;22.30;99.90
25973;DHT22;13765;51.166;4.466;2022-10-28T15:11:27;22.20;99.90
25973;DHT22;13765;51.166;4.466;2022-10-28T15:13:53;22.20;99.90
25973;DHT22;13765;51.166;4.466;2022-10-28T15:16:22;22.20;99.90
25973;DHT22;13765;51.166;4.466;2022-10-28T15:18:50;22.20;99.90
25973;DHT22;13765;51.166;4.466;2022-10-28T15:21:20;22.20;99.90
25973;DHT22;13765;51.166;4.466;2022-10-28T15:24:02;22.20;99.90
25973;DHT22;13765;51.166;4.466;2022-10-28T15:26:31;22.10;99.90
25973;DHT22;13765;51.166;4.466;2022-10-28T15:28:57;22.10;99.90
25973;DHT22;13765;51.166;4.466;2022-10-28T15:31:24;21.90;99.90
25973;DHT22;13765;51.166;4.466;2022-10-28T15:33:51;21.80;99.90
25973;DHT22;13765;51.166;4.466;2022-10-28T15:36:20;21.70;99.90
25973;DHT22;13765;51.166;4.466;2022-10-28T15:38:51;21.60;99.90
25973;DHT22;13765;51.166;4.466;2022-10-28T15:44:01;21.40;99.90
25973;DHT22;13765;51.166;4.466;2022-10-28T15:46:31;21.40;99.90
25973;DHT22;13765;51.166;4.466;2022-10-28T15:48:59;21.30;99.90
25973;DHT22;13765;51.166;4.466;2022-10-28T15:51:26;21.20;99.90
25973;DHT22;13765;51.166;4.466;2022-10-28T15:53:53;21.10;99.90
25973;DHT22;13765;51.166;4.466;2022-10-28T15:56:23;21.20;99.90
25973;DHT22;13765;51.166;4.466;2022-10-28T16:01:29;21.10;99.90
25973;DHT22;13765;51.166;4.466;2022-10-28T16:03:55;21.10;99.90
25973;DHT22;13765;51.166;4.466;2022-10-28T16:06:28;21.00;99.90
25973;DHT22;13765;51.166;4.466;2022-10-28T16:11:53;21.10;99.90
25973;DHT22;13765;51.166;4.466;2022-10-28T16:17:20;21.10;99.90
25973;DHT22;13765;51.166;4.466;2022-10-28T16:22:38;21.00;99.90
25973;DHT22;13765;51.166;4.466;2022-10-28T16:25:11;21.00;99.90
25973;DHT22;13765;51.166;4.466;2022-10-28T16:27:38;21.00;99.90
25973;DHT22;13765;51.166;4.466;2022-10-28T16:30:04;20.90;99.90
25973;DHT22;13765;51.166;4.466;2022-10-28T16:32:36;20.90;99.90
25973;DHT22;13765;51.166;4.466;2022-10-28T16:35:13;20.80;99.90
25973;DHT22;13765;51.166;4.466;2022-10-28T16:37:40;20.80;99.90
25973;DHT22;13765;51.166;4.466;2022-10-28T16:40:11;20.80;99.90
25973;DHT22;13765;51.166;4.466;2022-10-28T16:42:37;20.90;99.90
25973;DHT22;13765;51.166;4.466;2022-10-28T16:45:13;20.80;99.90
25973;DHT22;13765;51.166;4.466;2022-10-28T16:47:43;20.70;99.90
25973;DHT22;13765;51.166;4.466;2022-10-28T16:50:12;20.60;99.90
25973;DHT22;13765;51.166;4.466;2022-10-28T16:52:43;20.60;99.90
25973;DHT22;13765;51.166;4.466;2022-10-28T16:55:17;20.50;99.90
25973;DHT22;13765;51.166;4.466;2022-10-28T16:57:46;20.50;99.90
25973;DHT22;13765;51.166;4.466;2022-10-28T17:00:14;20.40;99.90
25973;DHT22;13765;51.166;4.466;2022-10-28T17:02:43;20.40;99.90
25973;DHT22;13765;51.166;4.466;2022-10-28T17:05:19;20.30;99.90
25973;DHT22;13765;51.166;4.466;2022-10-28T17:07:48;20.20;99.90
25973;DHT22;13765;51.166;4.466;2022-10-28T17:10:14;20.20;99.90
25973;DHT22;13765;51.166;4.466;2022-10-28T17:12:42;20.10;99.90
25973;DHT22;13765;51.166;4.466;2022-10-28T17:15:08;20.00;99.90
25973;DHT22;13765;51.166;4.466;2022-10-28T17:17:34;19.90;99.90
25973;DHT22;13765;51.166;4.466;2022-10-28T17:20:04;19.80;99.90
25973;DHT22;13765;51.166;4.466;2022-10-28T17:22:30;19.80;99.90
25973;DHT22;13765;51.166;4.466;2022-10-28T17:25:00;19.70;99.90
25973;DHT22;13765;51.166;4.466;2022-10-28T17:27:28;19.60;99.90
25973;DHT22;13765;51.166;4.466;2022-10-28T17:29:53;19.60;99.90
25973;DHT22;13765;51.166;4.466;2022-10-28T17:32:21;19.50;99.90
25973;DHT22;13765;51.166;4.466;2022-10-28T17:34:50;19.40;99.90
25973;DHT22;13765;51.166;4.466;2022-10-28T17:37:15;19.40;99.90
25973;DHT22;13765;51.166;4.466;2022-10-28T17:39:41;19.30;99.90
25973;DHT22;13765;51.166;4.466;2022-10-28T17:42:08;19.30;99.90
25973;DHT22;13765;51.166;4.466;2022-10-28T17:44:38;19.30;99.90
25973;DHT22;13765;51.166;4.466;2022-10-28T17:47:06;19.20;99.90
25973;DHT22;13765;51.166;4.466;2022-10-28T17:49:32;19.10;99.90
25973;DHT22;13765;51.166;4.466;2022-10-28T17:52:00;19.10;99.90
25973;DHT22;13765;51.166;4.466;2022-10-28T17:54:26;19.00;99.90
25973;DHT22;13765;51.166;4.466;2022-10-28T17:56:53;18.90;99.90
25973;DHT22;13765;51.166;4.466;2022-10-28T17:59:19;18.90;99.90
25973;DHT22;13765;51.166;4.466;2022-10-28T18:01:44;18.80;99.90
25973;DHT22;13765;51.166;4.466;2022-10-28T18:04:10;18.80;99.90
25973;DHT22;13765;51.166;4.466;2022-10-28T18:06:38;18.80;99.90
25973;DHT22;13765;51.166;4.466;2022-10-28T18:09:03;18.70;99.90
25973;DHT22;13765;51.166;4.466;2022-10-28T18:11:29;18.70;99.90
25973;DHT22;13765;51.166;4.466;2022-10-28T18:14:03;18.60;99.90
25973;DHT22;13765;51.166;4.466;2022-10-28T18:16:28;18.60;99.90
25973;DHT22;13765;51.166;4.466;2022-10-28T18:18:54;18.50;99.90
25973;DHT22;13765;51.166;4.466;2022-10-28T18:21:22;18.50;99.90
25973;DHT22;13765;51.166;4.466;2022-10-28T18:23:52;18.50;99.90
25973;DHT22;13765;51.166;4.466;2022-10-28T18:27:44;18.50;99.90
25973;DHT22;13765;51.166;4.466;2022-10-28T18:30:11;18.40;99.90
25973;DHT22;13765;51.166;4.466;2022-10-28T18:32:36;18.40;99.90
25973;DHT22;13765;51.166;4.466;2022-10-28T18:35:02;18.40;99.90
25973;DHT22;13765;51.166;4.466;2022-10-28T18:37:30;18.50;99.90
25973;DHT22;13765;51.166;4.466;2022-10-28T18:39:58;18.60;99.90
25973;DHT22;13765;51.166;4.466;2022-10-28T18:42:23;18.60;99.90
25973;DHT22;13765;51.166;4.466;2022-10-28T18:44:49;18.50;99.90
25973;DHT22;13765;51.166;4.466;2022-10-28T18:47:15;18.50;99.90
25973;DHT22;13765;51.166;4.466;2022-10-28T18:49:41;18.60;99.90
25973;DHT22;13765;51.166;4.466;2022-10-28T18:52:09;18.70;99.90
25973;DHT22;13765;51.166;4.466;2022-10-28T18:54:35;18.60;99.90
25973;DHT22;13765;51.166;4.466;2022-10-28T18:57:04;18.60;99.90
25973;DHT22;13765;51.166;4.466;2022-10-28T18:59:30;18.50;99.90
25973;DHT22;13765;51.166;4.466;2022-10-28T19:01:55;18.60;99.90
25973;DHT22;13765;51.166;4.466;2022-10-28T19:04:21;18.60;99.90
25973;DHT22;13765;51.166;4.466;2022-10-28T19:06:47;18.50;99.90